Time;durP1;ratioP1;P1;durP2;ratioP2;P2;SDS_P1;SDS_P2;PMS_P1;PMS_P2;Temp;Humidity;BMP_temperature;BMP_pressure;BME280_temperature;BME280_humidity;BME280_pressure;Samples;Min_cycle;Max_cycle;Signal;HPM_P1;HPM_P2
2023/05/01 00:01:11;;;;;;;6.95;5.70;;;10.00;77.70;;;;;;5133880;27;20210;-67
2023/05/01 00:03:39;;;;;;;5.82;5.00;;;10.00;78.00;;;;;;5134369;27;20587;-67
2023/05/01 00:06:07;;;;;;;7.50;5.15;;;10.00;78.30;;;;;;5133607;27;20210;-68
2023/05/01 00:08:35;;;;;;;9.25;5.93;;;10.00;78.30;;;;;;5133892;27;20237;-67
2023/05/01 00:11:08;;;;;;;6.60;5.82;;;9.90;79.80;;;;;;5133681;27;20565;-68
2023/05/01 00:13:36;;;;;;;7.65;5.20;;;9.90;80.20;;;;;;5133892;27;20676;-68
2023/05/01 00:16:11;;;;;;;8.30;7.32;;;9.90;80.40;;;;;;5133398;27;20226;-68
2023/05/01 00:18:40;;;;;;;8.85;6.80;;;9.80;80.50;;;;;;5133799;27;20217;-67
2023/05/01 00:21:10;;;;;;;7.43;5.55;;;9.80;80.30;;;;;;5133544;27;20188;-68
2023/05/01 00:23:39;;;;;;;6.75;5.40;;;9.80;80.50;;;;;;5134037;27;20244;-68
2023/05/01 00:26:06;;;;;;;8.25;6.35;;;9.70;80.50;;;;;;5133993;27;20191;-67
2023/05/01 00:28:33;;;;;;;7.03;6.00;;;9.70;81.20;;;;;;5133060;27;20692;-67
2023/05/01 00:31:00;;;;;;;7.97;6.20;;;9.60;81.70;;;;;;5133933;27;20534;-67
2023/05/01 00:33:28;;;;;;;9.70;5.75;;;9.60;81.80;;;;;;5132962;27;20634;-67
2023/05/01 00:35:56;;;;;;;8.00;6.20;;;9.60;82.10;;;;;;5134300;27;20191;-67
2023/05/01 00:38:24;;;;;;;9.30;6.40;;;9.60;82.30;;;;;;5133797;27;20183;-67
2023/05/01 00:40:51;;;;;;;8.75;6.95;;;9.60;82.80;;;;;;5133103;28;20582;-67
2023/05/01 00:43:19;;;;;;;7.38;6.30;;;9.50;83.40;;;;;;5132999;27;20187;-67
2023/05/01 00:45:46;;;;;;;6.65;5.90;;;9.50;83.90;;;;;;5133478;28;20194;-68
2023/05/01 00:48:15;;;;;;;9.43;6.03;;;9.50;84.90;;;;;;5133206;28;20232;-68
2023/05/01 00:50:45;;;;;;;14.18;7.47;;;9.50;85.20;;;;;;5133821;28;20192;-67
2023/05/01 00:53:14;;;;;;;5.63;5.13;;;9.50;85.30;;;;;;5133305;28;20184;-67
2023/05/01 00:55:42;;;;;;;9.02;8.07;;;9.40;84.90;;;;;;5133516;28;20240;-67
2023/05/01 00:58:11;;;;;;;5.90;4.90;;;9.40;84.30;;;;;;5133274;28;20187;-68
2023/05/01 01:00:38;;;;;;;5.95;5.07;;;9.40;84.10;;;;;;5133259;28;20268;-67
2023/05/01 01:03:05;;;;;;;5.85;5.30;;;9.30;84.00;;;;;;5132978;28;20179;-68
2023/05/01 01:05:36;;;;;;;6.60;5.70;;;9.20;84.90;;;;;;5133549;28;20195;-67
2023/05/01 01:08:11;;;;;;;5.55;4.90;;;9.10;85.80;;;;;;5132902;28;20253;-67
2023/05/01 01:10:48;;;;;;;7.70;5.18;;;9.10;85.90;;;;;;5133453;28;20187;-67
2023/05/01 01:13:25;;;;;;;5.75;5.10;;;9.00;86.40;;;;;;5132914;28;20188;-67
2023/05/01 01:16:06;;;;;;;7.35;5.32;;;9.00;86.50;;;;;;5133122;28;20220;-68
2023/05/01 01:18:37;;;;;;;6.50;5.15;;;9.00;86.60;;;;;;5132869;28;20184;-68
2023/05/01 01:21:12;;;;;;;6.80;5.93;;;9.00;86.60;;;;;;5133199;28;20266;-67
2023/05/01 01:24:12;;;;;;;7.13;5.25;;;9.00;86.70;;;;;;5132970;28;20184;-67
2023/05/01 01:27:02;;;;;;;8.20;5.38;;;9.00;86.90;;;;;;5127050;28;20188;-67
2023/05/01 01:29:58;;;;;;;7.70;6.22;;;9.00;87.20;;;;;;5132756;28;20188;-67
2023/05/01 01:32:48;;;;;;;7.05;5.70;;;9.00;87.70;;;;;;5119795;28;20192;-67
2023/05/01 01:35:20;;;;;;;9.95;5.80;;;9.00;88.20;;;;;;5112762;28;20199;-68
2023/05/01 01:37:52;;;;;;;9.65;5.20;;;8.90;87.50;;;;;;5114837;28;20196;-67
2023/05/01 01:40:25;;;;;;;7.18;4.78;;;8.90;87.70;;;;;;5133231;28;20608;-67
2023/05/01 01:42:59;;;;;;;12.10;5.55;;;8.80;87.80;;;;;;5133014;28;20188;-68
2023/05/01 01:45:34;;;;;;;5.38;4.50;;;8.80;87.90;;;;;;5133451;28;20187;-67
2023/05/01 01:48:04;;;;;;;5.65;4.70;;;8.80;88.00;;;;;;5132765;28;20758;-67
2023/05/01 01:50:36;;;;;;;7.50;5.60;;;8.70;87.90;;;;;;5133055;28;20227;-67
2023/05/01 01:53:05;;;;;;;5.88;4.70;;;8.70;88.30;;;;;;5130716;28;20202;-67
2023/05/01 01:55:34;;;;;;;7.07;4.97;;;8.70;88.50;;;;;;5134951;27;20195;-67
2023/05/01 01:58:05;;;;;;;5.70;5.13;;;8.70;88.80;;;;;;5135774;27;20183;-67
2023/05/01 02:00:33;;;;;;;5.95;5.00;;;8.70;89.40;;;;;;5136511;27;20223;-67
2023/05/01 02:03:02;;;;;;;7.20;5.07;;;8.60;88.60;;;;;;5135403;27;20179;-67
2023/05/01 02:05:30;;;;;;;6.80;4.68;;;8.50;88.70;;;;;;5135921;27;20274;-68
2023/05/01 02:07:59;;;;;;;4.93;4.20;;;8.40;89.40;;;;;;5136049;27;20248;-67
2023/05/01 02:10:28;;;;;;;5.78;5.20;;;8.40;90.00;;;;;;5136633;27;20202;-67
2023/05/01 02:12:58;;;;;;;6.43;5.13;;;8.40;90.20;;;;;;5135872;27;20180;-67
2023/05/01 02:15:27;;;;;;;5.93;5.32;;;8.40;90.20;;;;;;5136001;27;20261;-67
2023/05/01 02:17:55;;;;;;;8.25;5.50;;;8.40;90.00;;;;;;5136001;27;20626;-68
2023/05/01 02:20:23;;;;;;;7.40;4.60;;;8.40;90.30;;;;;;5135907;27;20305;-67
2023/05/01 02:22:52;;;;;;;5.88;5.13;;;8.40;90.60;;;;;;5135707;27;20176;-67
2023/05/01 02:25:21;;;;;;;7.45;5.53;;;8.40;90.80;;;;;;5135903;27;20737;-67
2023/05/01 02:27:56;;;;;;;6.72;4.85;;;8.40;91.00;;;;;;5135598;27;20546;-67
2023/05/01 02:30:32;;;;;;;6.90;5.85;;;8.40;91.10;;;;;;5135673;27;20191;-67
2023/05/01 02:33:00;;;;;;;6.95;5.25;;;8.50;91.20;;;;;;5136161;27;20534;-67
2023/05/01 02:35:27;;;;;;;8.02;6.47;;;8.50;90.90;;;;;;5135513;27;20595;-67
2023/05/01 02:37:58;;;;;;;8.10;5.65;;;8.50;90.60;;;;;;5136215;27;20267;-67
2023/05/01 02:40:28;;;;;;;8.13;5.80;;;8.50;90.80;;;;;;5135701;27;20271;-68
2023/05/01 02:42:55;;;;;;;9.80;6.30;;;8.50;90.70;;;;;;5135992;27;20276;-67
2023/05/01 02:45:24;;;;;;;8.18;5.57;;;8.40;90.50;;;;;;5135759;27;20195;-67
2023/05/01 02:47:56;;;;;;;7.65;5.22;;;8.40;90.60;;;;;;5137313;27;20278;-67
2023/05/01 02:50:25;;;;;;;6.32;5.00;;;8.40;90.60;;;;;;5136733;27;20633;-68
2023/05/01 02:52:54;;;;;;;7.93;5.55;;;8.40;90.60;;;;;;5137204;27;20195;-68
2023/05/01 02:55:22;;;;;;;5.72;5.03;;;8.40;90.50;;;;;;5136111;27;20246;-67
2023/05/01 02:57:52;;;;;;;5.55;4.82;;;8.40;90.50;;;;;;5135593;27;20188;-68
2023/05/01 03:00:24;;;;;;;5.47;4.72;;;8.40;90.70;;;;;;5135166;27;20216;-67
2023/05/01 03:02:54;;;;;;;5.55;4.82;;;8.30;90.80;;;;;;5135181;27;20199;-67
2023/05/01 03:05:21;;;;;;;6.93;5.40;;;8.30;90.80;;;;;;5134308;27;20184;-67
2023/05/01 03:07:50;;;;;;;6.93;5.18;;;8.30;91.00;;;;;;5135279;27;20196;-67
2023/05/01 03:10:17;;;;;;;6.85;5.18;;;8.30;91.10;;;;;;5134932;27;20192;-67
2023/05/01 03:12:44;;;;;;;7.90;6.75;;;8.30;91.40;;;;;;5135470;27;20646;-67
2023/05/01 03:15:13;;;;;;;10.70;6.43;;;8.30;91.50;;;;;;5134373;27;20308;-67
2023/05/01 03:17:40;;;;;;;8.10;6.22;;;8.30;91.60;;;;;;5135307;27;20187;-68
2023/05/01 03:20:12;;;;;;;7.05;6.05;;;8.40;91.50;;;;;;5134460;27;20211;-67
2023/05/01 03:22:40;;;;;;;9.60;5.07;;;8.40;91.60;;;;;;5134847;27;20194;-67
2023/05/01 03:25:08;;;;;;;6.15;5.50;;;8.40;91.50;;;;;;5134721;27;20681;-67
2023/05/01 03:27:35;;;;;;;7.78;5.55;;;8.30;91.40;;;;;;5134769;27;20199;-67
2023/05/01 03:30:03;;;;;;;5.82;5.22;;;8.30;91.60;;;;;;5134417;27;20207;-67
2023/05/01 03:32:32;;;;;;;6.20;5.25;;;8.30;91.80;;;;;;5134791;27;20187;-67
2023/05/01 03:34:59;;;;;;;5.30;4.50;;;8.30;91.80;;;;;;5134493;27;20274;-67
2023/05/01 03:37:26;;;;;;;6.45;5.53;;;8.30;91.60;;;;;;5134553;27;20188;-68
2023/05/01 03:39:54;;;;;;;6.10;5.50;;;8.30;91.60;;;;;;5134311;27;20187;-67
2023/05/01 03:42:21;;;;;;;9.32;7.40;;;8.40;91.70;;;;;;5134553;27;20198;-67
2023/05/01 03:44:50;;;;;;;11.95;6.25;;;8.40;91.90;;;;;;5134094;27;20647;-67
2023/05/01 03:47:18;;;;;;;9.57;6.07;;;8.40;91.70;;;;;;5134453;27;20188;-67
2023/05/01 03:49:46;;;;;;;7.53;5.90;;;8.40;91.60;;;;;;5133763;27;20194;-67
2023/05/01 03:52:13;;;;;;;7.35;5.53;;;8.40;91.50;;;;;;5134394;27;20202;-68
2023/05/01 03:54:41;;;;;;;8.18;6.15;;;8.40;91.60;;;;;;5133825;27;20190;-67
2023/05/01 03:57:13;;;;;;;7.15;5.85;;;8.40;91.60;;;;;;5134524;27;20241;-67
2023/05/01 03:59:42;;;;;;;6.28;5.68;;;8.40;92.20;;;;;;5134168;27;20188;-68
2023/05/01 04:02:10;;;;;;;8.93;6.45;;;8.40;91.80;;;;;;5134569;27;20187;-67
2023/05/01 04:04:37;;;;;;;8.82;6.88;;;8.40;91.80;;;;;;5133709;27;20180;-67
2023/05/01 04:07:06;;;;;;;6.90;6.20;;;8.40;91.90;;;;;;5134315;27;20705;-67
2023/05/01 04:09:33;;;;;;;8.30;5.18;;;8.50;91.90;;;;;;5133772;27;20176;-67
2023/05/01 04:12:01;;;;;;;6.55;5.93;;;8.50;91.90;;;;;;5134322;27;20191;-67
2023/05/01 04:14:28;;;;;;;7.38;5.70;;;8.60;91.90;;;;;;5133594;27;20183;-68
2023/05/01 04:16:56;;;;;;;7.53;6.68;;;8.60;91.70;;;;;;5133489;27;20307;-68
2023/05/01 04:19:23;;;;;;;9.70;6.65;;;8.60;91.30;;;;;;5132386;27;20221;-68
2023/05/01 04:21:50;;;;;;;9.40;7.43;;;8.60;90.80;;;;;;5133942;27;20677;-68
2023/05/01 04:24:18;;;;;;;9.23;6.55;;;8.60;91.10;;;;;;5133602;27;20657;-67
2023/05/01 04:26:46;;;;;;;9.30;5.90;;;8.60;91.10;;;;;;5133901;27;20187;-67
2023/05/01 04:29:13;;;;;;;9.15;7.38;;;8.50;91.40;;;;;;5133803;27;20184;-67
2023/05/01 04:31:42;;;;;;;9.07;6.00;;;8.50;91.80;;;;;;5133847;27;20194;-67
2023/05/01 04:34:09;;;;;;;8.00;7.00;;;8.50;91.60;;;;;;5133083;27;20198;-67
2023/05/01 04:36:36;;;;;;;9.05;7.68;;;8.50;91.60;;;;;;5133861;27;20194;-67
2023/05/01 04:39:04;;;;;;;11.93;8.35;;;8.50;91.70;;;;;;5133287;27;20224;-68
2023/05/01 04:41:32;;;;;;;11.95;8.90;;;8.50;91.80;;;;;;5133628;28;20689;-67
2023/05/01 04:44:00;;;;;;;10.77;8.35;;;8.60;91.90;;;;;;5132978;28;20183;-67
2023/05/01 04:46:27;;;;;;;8.90;7.85;;;8.60;92.20;;;;;;5133958;28;20188;-67
2023/05/01 04:48:55;;;;;;;7.90;6.45;;;8.60;92.30;;;;;;5133009;28;20233;-68
2023/05/01 04:51:22;;;;;;;14.10;7.82;;;8.70;92.20;;;;;;5133527;28;20228;-67
2023/05/01 04:53:49;;;;;;;11.25;9.60;;;8.80;92.10;;;;;;5133168;28;20646;-67
2023/05/01 04:56:16;;;;;;;9.30;7.95;;;8.80;92.10;;;;;;5133497;28;20192;-67
2023/05/01 04:58:45;;;;;;;8.88;7.45;;;8.90;92.10;;;;;;5133287;28;20194;-68
2023/05/01 05:01:13;;;;;;;10.20;7.43;;;8.90;92.10;;;;;;5132747;28;20754;-67
2023/05/01 05:03:41;;;;;;;8.90;6.63;;;9.00;92.10;;;;;;5133330;28;20191;-68
2023/05/01 05:06:08;;;;;;;10.38;7.60;;;9.00;92.00;;;;;;5133658;28;20526;-67
2023/05/01 05:08:35;;;;;;;9.88;6.78;;;9.10;92.10;;;;;;5133540;28;20221;-68
2023/05/01 05:11:03;;;;;;;8.20;6.60;;;9.10;91.90;;;;;;5132765;28;20646;-69
2023/05/01 05:13:30;;;;;;;8.75;6.82;;;9.20;92.10;;;;;;5133330;28;20196;-67
2023/05/01 05:15:59;;;;;;;12.73;6.13;;;9.20;92.00;;;;;;5132484;28;20246;-67
2023/05/01 05:18:32;;;;;;;9.05;5.97;;;9.20;91.40;;;;;;5133301;28;20713;-67
2023/05/01 05:21:03;;;;;;;6.90;6.20;;;9.30;91.50;;;;;;5132837;28;20211;-67
2023/05/01 05:23:31;;;;;;;7.70;5.60;;;9.40;91.30;;;;;;5133204;28;20191;-68
2023/05/01 05:26:00;;;;;;;7.22;6.00;;;9.50;91.30;;;;;;5132905;28;20190;-67
2023/05/01 05:28:28;;;;;;;11.82;6.55;;;9.50;91.30;;;;;;5133598;27;20192;-68
2023/05/01 05:30:55;;;;;;;8.90;6.65;;;9.60;91.50;;;;;;5134321;27;20179;-67
2023/05/01 05:33:25;;;;;;;8.52;6.65;;;9.70;91.60;;;;;;5132793;27;20184;-67
2023/05/01 05:35:52;;;;;;;7.43;5.68;;;9.80;91.50;;;;;;5134182;27;20183;-67
2023/05/01 05:38:22;;;;;;;6.68;5.97;;;9.80;90.90;;;;;;5134192;27;20282;-68
2023/05/01 05:40:49;;;;;;;7.57;5.80;;;9.80;90.90;;;;;;5120315;27;20574;-68
2023/05/01 05:43:16;;;;;;;8.77;6.13;;;9.80;91.00;;;;;;5116070;27;20191;-68
2023/05/01 05:45:46;;;;;;;8.10;7.15;;;9.90;91.50;;;;;;5116048;27;20179;-68
2023/05/01 05:48:13;;;;;;;7.45;6.50;;;10.00;90.90;;;;;;5130000;27;20184;-67
2023/05/01 05:50:42;;;;;;;7.97;6.68;;;10.10;90.60;;;;;;5133457;27;20187;-67
2023/05/01 05:53:10;;;;;;;8.45;6.78;;;10.20;90.40;;;;;;5127837;27;20650;-68
2023/05/01 05:55:37;;;;;;;8.05;6.75;;;10.20;90.40;;;;;;5118110;27;20277;-67
2023/05/01 05:58:05;;;;;;;9.48;5.53;;;10.20;90.20;;;;;;5133399;27;20584;-68
2023/05/01 06:00:36;;;;;;;6.70;5.63;;;10.30;90.20;;;;;;5133287;27;20195;-67
2023/05/01 06:03:04;;;;;;;6.40;5.30;;;10.30;89.80;;;;;;5133797;27;20241;-67
2023/05/01 06:05:31;;;;;;;9.95;6.43;;;10.30;89.60;;;;;;5133556;27;20198;-67
2023/05/01 06:08:00;;;;;;;8.13;6.30;;;10.40;89.50;;;;;;5132969;27;20223;-67
2023/05/01 06:10:29;;;;;;;9.07;6.68;;;10.50;90.10;;;;;;5126917;27;20237;-68
2023/05/01 06:12:56;;;;;;;9.10;6.93;;;10.50;90.30;;;;;;5115467;27;20677;-68
2023/05/01 06:15:23;;;;;;;11.75;6.95;;;10.60;90.50;;;;;;5115724;27;20231;-68
2023/05/01 06:17:51;;;;;;;10.15;5.70;;;10.60;90.70;;;;;;5130191;27;20579;-68
2023/05/01 06:20:18;;;;;;;11.15;6.45;;;10.70;91.10;;;;;;5133275;27;20183;-67
2023/05/01 06:22:45;;;;;;;6.38;5.78;;;10.80;91.20;;;;;;5133734;27;20219;-67
2023/05/01 06:25:14;;;;;;;6.65;5.95;;;10.80;91.40;;;;;;5132130;27;20670;-68
2023/05/01 06:27:41;;;;;;;8.10;6.60;;;10.90;91.10;;;;;;5118303;27;20237;-67
2023/05/01 06:30:09;;;;;;;13.30;7.22;;;11.00;91.30;;;;;;5118801;27;20719;-67
2023/05/01 06:32:37;;;;;;;14.15;7.03;;;11.00;91.40;;;;;;5115067;27;20540;-67
2023/05/01 06:35:08;;;;;;;7.22;6.32;;;11.00;91.30;;;;;;5132209;27;20195;-68
2023/05/01 06:37:37;;;;;;;9.25;6.43;;;11.10;91.60;;;;;;5130125;27;20552;-67
2023/05/01 06:40:05;;;;;;;7.15;6.20;;;11.10;91.10;;;;;;5114989;27;20203;-68
2023/05/01 06:42:34;;;;;;;9.27;6.32;;;11.10;90.90;;;;;;5113840;27;20707;-68
2023/05/01 06:45:02;;;;;;;6.78;6.00;;;11.10;90.60;;;;;;5117950;27;20218;-67
2023/05/01 06:47:29;;;;;;;9.45;6.47;;;11.20;90.50;;;;;;5115133;27;20224;-67
2023/05/01 06:49:57;;;;;;;7.80;5.75;;;11.20;90.50;;;;;;5117033;27;20658;-68
2023/05/01 06:52:24;;;;;;;8.00;5.82;;;11.30;90.30;;;;;;5132500;27;20187;-68
2023/05/01 06:54:51;;;;;;;9.43;7.43;;;11.30;90.60;;;;;;5132081;27;20191;-68
2023/05/01 06:57:19;;;;;;;7.00;5.70;;;11.30;90.80;;;;;;5116719;27;20214;-68
2023/05/01 06:59:48;;;;;;;7.97;6.03;;;11.30;90.90;;;;;;5114018;27;20219;-68
2023/05/01 07:02:15;;;;;;;11.38;6.35;;;11.40;90.80;;;;;;5118423;27;20216;-68
2023/05/01 07:04:43;;;;;;;7.45;6.50;;;11.40;90.60;;;;;;5114214;27;20246;-68
2023/05/01 07:07:10;;;;;;;7.40;6.60;;;11.50;90.90;;;;;;5115145;27;20276;-67
2023/05/01 07:09:43;;;;;;;10.50;6.55;;;11.60;90.60;;;;;;5114342;27;20188;-68
2023/05/01 07:12:10;;;;;;;8.90;7.28;;;11.70;90.50;;;;;;5119728;27;20185;-68
2023/05/01 07:14:37;;;;;;;6.05;5.45;;;11.70;90.20;;;;;;5114439;28;20222;-67
2023/05/01 07:17:06;;;;;;;7.63;6.40;;;11.70;90.20;;;;;;5117589;27;20247;-68
2023/05/01 07:19:33;;;;;;;7.25;5.88;;;11.80;89.80;;;;;;5113822;27;20193;-67
2023/05/01 07:22:02;;;;;;;7.80;6.75;;;11.90;89.70;;;;;;5113731;27;20701;-68
2023/05/01 07:24:29;;;;;;;10.45;7.40;;;12.00;89.20;;;;;;5113961;27;20222;-68
2023/05/01 07:26:56;;;;;;;10.85;7.28;;;12.00;89.40;;;;;;5128009;27;20183;-68
2023/05/01 07:29:23;;;;;;;9.23;7.10;;;12.10;89.60;;;;;;5129785;27;20272;-68
2023/05/01 07:31:50;;;;;;;9.88;6.60;;;12.10;90.00;;;;;;5132292;27;20199;-68
2023/05/01 07:34:53;;;;;;;12.70;6.90;;;12.20;90.30;;;;;;5120849;27;20258;-68
2023/05/01 07:37:25;;;;;;;8.77;7.28;;;12.20;90.40;;;;;;5116753;27;20580;-68
2023/05/01 07:39:52;;;;;;;13.07;7.93;;;12.30;90.60;;;;;;5126374;27;20180;-68
2023/05/01 07:42:19;;;;;;;10.90;7.70;;;12.40;90.60;;;;;;5131541;27;20513;-68
2023/05/01 07:44:47;;;;;;;9.52;7.70;;;12.50;90.70;;;;;;5118680;27;20443;-68
2023/05/01 07:47:19;;;;;;;9.53;7.80;;;12.60;90.90;;;;;;5112810;27;20280;-67
2023/05/01 07:49:46;;;;;;;8.50;7.60;;;12.70;90.40;;;;;;5126875;27;20433;-67
2023/05/01 07:52:15;;;;;;;8.53;7.50;;;12.80;90.50;;;;;;5120677;27;20593;-68
2023/05/01 07:54:48;;;;;;;7.63;6.47;;;12.90;90.60;;;;;;5115709;27;20446;-67
2023/05/01 07:57:15;;;;;;;7.70;6.50;;;13.00;90.70;;;;;;5119011;27;20860;-67
2023/05/01 07:59:42;;;;;;;7.70;6.90;;;13.10;90.60;;;;;;5131288;27;20523;-67
2023/05/01 08:02:12;;;;;;;6.90;6.03;;;13.20;90.70;;;;;;5131364;27;20580;-67
2023/05/01 08:04:40;;;;;;;7.50;6.40;;;13.20;90.60;;;;;;5130244;27;20996;-67
2023/05/01 08:07:07;;;;;;;6.13;5.53;;;13.30;90.20;;;;;;5131134;27;20520;-67
2023/05/01 08:09:35;;;;;;;7.17;6.47;;;13.30;89.80;;;;;;5130912;27;20449;-67
2023/05/01 08:12:03;;;;;;;10.07;6.03;;;13.40;90.10;;;;;;5130878;27;20468;-67
2023/05/01 08:14:30;;;;;;;8.07;7.20;;;13.50;90.50;;;;;;5125682;27;20470;-67
2023/05/01 08:16:57;;;;;;;9.40;6.97;;;13.50;90.20;;;;;;5113150;27;20486;-68
2023/05/01 08:19:25;;;;;;;6.70;6.00;;;13.50;89.70;;;;;;5113019;27;20546;-68
2023/05/01 08:21:54;;;;;;;6.90;6.20;;;13.50;90.10;;;;;;5112564;27;20963;-67
2023/05/01 08:24:21;;;;;;;7.33;6.60;;;13.50;88.80;;;;;;5130694;27;20831;-67
2023/05/01 08:26:50;;;;;;;7.70;6.30;;;13.50;88.90;;;;;;5130139;27;20461;-67
2023/05/01 08:29:22;;;;;;;8.47;7.47;;;13.50;88.60;;;;;;5122755;27;20517;-68
2023/05/01 08:31:49;;;;;;;7.23;5.93;;;13.50;88.80;;;;;;5115855;27;20525;-68
2023/05/01 08:34:17;;;;;;;10.00;7.13;;;13.40;89.40;;;;;;5112021;28;20466;-68
2023/05/01 08:36:44;;;;;;;7.37;6.37;;;13.40;89.60;;;;;;5111675;27;20842;-67
2023/05/01 08:39:11;;;;;;;7.60;6.63;;;13.40;90.30;;;;;;5111978;27;20916;-67
2023/05/01 08:41:39;;;;;;;7.37;6.10;;;13.40;90.40;;;;;;5129862;27;20508;-67
2023/05/01 08:44:10;;;;;;;8.10;6.70;;;13.40;90.40;;;;;;5130319;27;20480;-68
2023/05/01 08:46:46;;;;;;;10.97;6.70;;;13.40;90.70;;;;;;5130430;28;20445;-68
2023/05/01 08:49:16;;;;;;;9.33;6.57;;;13.40;90.70;;;;;;5112084;28;20525;-67
2023/05/01 08:51:46;;;;;;;8.60;7.70;;;13.40;90.70;;;;;;5112082;28;20465;-67
2023/05/01 08:54:14;;;;;;;8.10;6.77;;;13.40;91.00;;;;;;5112189;28;20776;-68
2023/05/01 08:56:44;;;;;;;8.80;6.53;;;13.50;91.30;;;;;;5112081;28;20434;-68
2023/05/01 08:59:14;;;;;;;8.30;7.50;;;13.50;91.50;;;;;;5112330;28;20437;-67
2023/05/01 09:01:42;;;;;;;8.47;7.10;;;13.50;91.50;;;;;;5111981;28;20490;-67
2023/05/01 09:04:11;;;;;;;7.27;6.30;;;13.50;91.40;;;;;;5113722;27;20438;-68
2023/05/01 09:06:38;;;;;;;12.93;7.27;;;13.50;91.40;;;;;;5116074;27;20538;-67
2023/05/01 09:09:05;;;;;;;11.83;9.33;;;13.60;91.80;;;;;;5116348;27;20469;-68
2023/05/01 09:11:32;;;;;;;11.53;8.73;;;13.60;91.60;;;;;;5119863;27;20482;-68
2023/05/01 09:14:04;;;;;;;9.57;8.00;;;13.50;91.40;;;;;;5116088;27;20806;-67
2023/05/01 09:16:32;;;;;;;10.03;8.70;;;13.50;91.10;;;;;;5115354;27;21007;-67
2023/05/01 09:19:01;;;;;;;9.27;8.37;;;13.50;91.20;;;;;;5115397;27;20442;-68
2023/05/01 09:21:30;;;;;;;10.70;9.57;;;13.50;91.30;;;;;;5113483;27;20495;-68
2023/05/01 09:23:58;;;;;;;11.60;10.07;;;13.50;91.20;;;;;;5132267;27;20433;-67
2023/05/01 09:26:25;;;;;;;9.80;8.80;;;13.50;91.70;;;;;;5128404;27;20492;-68
2023/05/01 09:28:56;;;;;;;10.33;9.23;;;13.50;92.30;;;;;;5122875;27;20434;-68
2023/05/01 09:31:27;;;;;;;9.33;7.93;;;13.60;92.50;;;;;;5121222;27;20474;-68
2023/05/01 09:33:57;;;;;;;10.70;7.90;;;13.60;92.40;;;;;;5121661;27;20445;-67
2023/05/01 09:36:26;;;;;;;9.53;8.63;;;13.60;92.40;;;;;;5122527;27;20442;-68
2023/05/01 09:38:53;;;;;;;8.77;7.87;;;13.60;92.40;;;;;;5127047;27;20441;-67
2023/05/01 09:41:22;;;;;;;10.00;9.00;;;13.70;92.20;;;;;;5125208;27;20437;-68
2023/05/01 09:43:50;;;;;;;9.13;8.03;;;13.70;92.10;;;;;;5128910;27;20568;-68
2023/05/01 09:46:18;;;;;;;10.43;8.70;;;13.70;92.70;;;;;;5129436;27;20472;-68
2023/05/01 09:48:57;;;;;;;10.57;9.07;;;13.80;92.70;;;;;;5123820;27;20521;-68
2023/05/01 09:51:26;;;;;;;10.10;8.13;;;13.80;92.80;;;;;;5128145;27;20528;-68
2023/05/01 09:53:55;;;;;;;11.60;7.90;;;13.90;92.70;;;;;;5123838;27;20469;-68
2023/05/01 09:56:23;;;;;;;10.40;8.80;;;14.00;92.50;;;;;;5122244;27;20967;-68
2023/05/01 09:58:52;;;;;;;9.70;8.53;;;14.10;92.70;;;;;;5125275;27;20839;-68
2023/05/01 10:01:19;;;;;;;9.70;8.70;;;14.20;92.70;;;;;;5128161;27;20475;-68
2023/05/01 10:03:55;;;;;;;11.13;9.20;;;14.30;92.50;;;;;;5121440;27;20875;-68
2023/05/01 10:06:29;;;;;;;8.87;7.97;;;14.40;93.10;;;;;;5110141;27;20458;-68
2023/05/01 10:08:56;;;;;;;11.87;9.10;;;14.50;92.40;;;;;;5122040;27;20425;-68
2023/05/01 10:11:25;;;;;;;15.07;8.73;;;14.60;92.00;;;;;;5084023;27;20450;-68
2023/05/01 10:14:07;;;;;;;9.30;8.00;;;14.70;91.40;;;;;;5084895;27;20950;-67
2023/05/01 10:16:35;;;;;;;8.80;7.93;;;14.80;91.40;;;;;;5065059;27;20952;-68
2023/05/01 10:19:03;;;;;;;9.57;8.10;;;14.90;91.80;;;;;;5084136;28;20551;-68
2023/05/01 10:21:33;;;;;;;10.27;8.50;;;14.90;92.40;;;;;;5067689;28;20498;-68
2023/05/01 10:24:02;;;;;;;11.77;9.03;;;15.00;92.60;;;;;;5060064;28;20480;-68
2023/05/01 10:26:29;;;;;;;9.60;8.70;;;15.20;93.00;;;;;;5060538;28;20502;-68
2023/05/01 10:28:58;;;;;;;8.63;7.73;;;15.30;93.00;;;;;;5073109;28;21035;-67
2023/05/01 10:31:27;;;;;;;11.07;8.90;;;15.40;92.40;;;;;;5072018;28;20945;-68
2023/05/01 10:33:55;;;;;;;9.20;8.30;;;15.50;92.40;;;;;;5062364;28;20474;-68
2023/05/01 10:36:31;;;;;;;8.30;7.50;;;15.60;92.20;;;;;;5060272;28;21018;-69
2023/05/01 10:39:32;;;;;;;9.90;8.23;;;15.80;92.30;;;;;;5045719;28;20480;-68
2023/05/01 10:42:17;;;;;;;10.10;8.30;;;16.00;91.90;;;;;;5047189;28;20455;-67
2023/05/01 10:44:49;;;;;;;9.60;8.67;;;16.20;91.50;;;;;;5081952;28;20427;-67
2023/05/01 10:47:49;;;;;;;8.77;7.87;;;16.30;90.60;;;;;;5069762;28;21010;-67
2023/05/01 10:50:17;;;;;;;9.97;8.70;;;16.50;90.40;;;;;;4983810;28;20526;-67
2023/05/01 10:53:17;;;;;;;10.83;9.70;;;16.70;90.30;;;;;;4974219;28;20463;-67
2023/05/01 10:55:48;;;;;;;9.30;8.33;;;16.90;89.80;;;;;;5040110;28;20939;-67
2023/05/01 10:58:51;;;;;;;10.60;9.20;;;17.00;89.20;;;;;;5057405;28;20877;-67
2023/05/01 11:01:32;;;;;;;12.30;9.40;;;17.10;88.90;;;;;;5067097;28;20451;-67
2023/05/01 11:04:00;;;;;;;9.73;8.40;;;17.10;89.30;;;;;;5082013;28;20525;-67
2023/05/01 11:06:30;;;;;;;10.80;9.00;;;17.20;89.00;;;;;;5070061;28;20531;-67
2023/05/01 11:08:58;;;;;;;10.30;8.77;;;17.20;88.40;;;;;;5076202;28;20479;-67
2023/05/01 11:11:51;;;;;;;11.53;10.20;;;17.20;88.40;;;;;;5072790;28;20445;-67
2023/05/01 11:14:18;;;;;;;12.37;10.57;;;17.30;87.50;;;;;;5061505;28;20814;-67
2023/05/01 11:16:47;;;;;;;11.30;10.00;;;17.40;87.50;;;;;;5079832;28;20574;-68
2023/05/01 11:19:49;;;;;;;11.43;10.27;;;17.40;88.10;;;;;;5043970;28;20464;-67
2023/05/01 11:22:17;;;;;;;11.43;9.27;;;17.50;88.40;;;;;;5043871;28;20447;-67
2023/05/01 11:24:44;;;;;;;12.60;9.87;;;17.70;88.20;;;;;;5049957;28;20448;-67
2023/05/01 11:27:17;;;;;;;10.60;9.50;;;17.80;87.70;;;;;;5043653;28;20479;-67
2023/05/01 11:29:49;;;;;;;10.07;9.00;;;17.90;87.20;;;;;;5045024;28;20441;-67
2023/05/01 11:32:23;;;;;;;10.60;9.50;;;18.00;83.60;;;;;;5044392;27;20458;-68
2023/05/01 11:34:51;;;;;;;9.93;8.77;;;18.00;83.60;;;;;;5091613;27;21010;-68
2023/05/01 11:37:18;;;;;;;9.67;8.70;;;18.10;84.10;;;;;;5063412;28;20542;-67
2023/05/01 11:39:50;;;;;;;10.63;7.80;;;18.20;84.60;;;;;;5085096;28;21222;-68
2023/05/01 11:42:21;;;;;;;8.20;7.40;;;18.50;84.70;;;;;;5058922;28;20443;-67
2023/05/01 11:45:09;;;;;;;8.37;6.80;;;18.80;83.80;;;;;;5079080;28;20472;-68
2023/05/01 11:47:42;;;;;;;9.00;7.33;;;19.10;81.50;;;;;;5063613;28;20467;-67
2023/05/01 11:50:13;;;;;;;9.47;8.47;;;19.40;79.80;;;;;;5078025;28;20455;-67
2023/05/01 11:52:45;;;;;;;9.07;8.17;;;19.50;78.70;;;;;;5063559;28;20556;-67
2023/05/01 11:55:12;;;;;;;9.60;7.83;;;19.40;76.80;;;;;;5078859;28;20447;-67
2023/05/01 11:57:51;;;;;;;8.53;7.60;;;19.20;77.00;;;;;;5062471;28;20450;-67
2023/05/01 12:00:27;;;;;;;8.13;7.00;;;19.10;77.10;;;;;;5082443;28;20479;-67
2023/05/01 12:03:01;;;;;;;9.03;8.03;;;18.80;76.30;;;;;;5073957;27;20476;-67
2023/05/01 12:05:31;;;;;;;9.10;7.70;;;18.60;76.60;;;;;;5086797;27;20475;-67
2023/05/01 12:08:10;;;;;;;10.87;8.23;;;18.50;77.60;;;;;;5070545;28;20858;-68
2023/05/01 12:10:38;;;;;;;9.00;7.77;;;18.50;77.30;;;;;;5071177;28;20447;-67
2023/05/01 12:13:08;;;;;;;9.83;8.67;;;18.40;77.50;;;;;;5064774;28;20832;-67
2023/05/01 12:15:37;;;;;;;8.33;7.53;;;18.20;78.10;;;;;;5074250;28;20551;-67
2023/05/01 12:18:04;;;;;;;9.33;8.23;;;18.00;79.30;;;;;;5073238;27;20453;-67
2023/05/01 12:20:36;;;;;;;9.77;7.80;;;18.00;79.30;;;;;;5085425;27;20483;-67
2023/05/01 12:23:04;;;;;;;10.40;7.80;;;17.90;79.50;;;;;;5064743;28;20479;-67
2023/05/01 12:25:32;;;;;;;10.17;7.33;;;17.90;78.40;;;;;;5076623;28;20458;-67
2023/05/01 12:28:00;;;;;;;8.40;7.13;;;17.90;78.60;;;;;;5064475;28;20466;-68
2023/05/01 12:30:29;;;;;;;6.30;5.63;;;17.80;76.50;;;;;;5075012;28;20490;-68
2023/05/01 12:33:00;;;;;;;7.60;5.80;;;17.70;76.70;;;;;;5065176;28;20465;-67
2023/05/01 12:35:30;;;;;;;6.87;6.17;;;17.60;76.40;;;;;;5080800;28;20832;-67
2023/05/01 12:38:00;;;;;;;6.10;5.50;;;17.50;75.40;;;;;;5066032;28;20478;-68
2023/05/01 12:40:28;;;;;;;7.30;6.50;;;17.30;75.10;;;;;;5080171;28;20532;-67
2023/05/01 12:42:57;;;;;;;8.00;6.37;;;17.20;74.80;;;;;;5063036;28;20479;-67
2023/05/01 12:45:25;;;;;;;6.73;5.27;;;17.00;74.90;;;;;;5079017;28;20890;-67
2023/05/01 12:47:53;;;;;;;8.30;6.70;;;16.90;76.20;;;;;;5055635;28;20457;-67
2023/05/01 12:50:20;;;;;;;8.53;6.73;;;16.90;77.30;;;;;;5075042;28;20448;-67
2023/05/01 12:52:49;;;;;;;7.53;6.60;;;16.90;77.10;;;;;;5068650;28;20797;-67
2023/05/01 12:55:16;;;;;;;9.80;7.20;;;16.90;76.60;;;;;;5076419;28;20436;-68
2023/05/01 12:57:53;;;;;;;8.73;6.13;;;16.80;77.00;;;;;;5056924;28;20483;-67
2023/05/01 13:00:21;;;;;;;7.17;6.33;;;16.70;77.50;;;;;;5074914;28;20443;-67
2023/05/01 13:02:49;;;;;;;11.53;10.33;;;16.60;76.90;;;;;;5056278;28;20897;-67